sensor_id;sensor_type;location;lat;lon;timestamp;temperature;humidity
10390;DHT22;5241;47.830;12.972;2023-03-31T00:01:33;8.40;99.90
10390;DHT22;5241;47.830;12.972;2023-03-31T00:04:00;8.30;99.90
10390;DHT22;5241;47.830;12.972;2023-03-31T00:06:34;8.10;99.90
10390;DHT22;5241;47.830;12.972;2023-03-31T00:09:07;8.10;99.90
10390;DHT22;5241;47.830;12.972;2023-03-31T00:11:33;8.00;99.90
10390;DHT22;5241;47.830;12.972;2023-03-31T00:13:59;8.00;99.90
10390;DHT22;5241;47.830;12.972;2023-03-31T00:16:24;8.00;99.90
10390;DHT22;5241;47.830;12.972;2023-03-31T00:18:50;8.00;99.90
10390;DHT22;5241;47.830;12.972;2023-03-31T00:21:18;7.90;99.90
10390;DHT22;5241;47.830;12.972;2023-03-31T00:23:56;7.90;99.90
10390;DHT22;5241;47.830;12.972;2023-03-31T00:26:22;7.90;99.90
10390;DHT22;5241;47.830;12.972;2023-03-31T00:28:48;7.90;99.90
10390;DHT22;5241;47.830;12.972;2023-03-31T00:31:14;7.90;99.90
10390;DHT22;5241;47.830;12.972;2023-03-31T00:33:40;7.90;99.90
10390;DHT22;5241;47.830;12.972;2023-03-31T00:36:06;7.90;99.90
10390;DHT22;5241;47.830;12.972;2023-03-31T00:38:32;7.90;99.90
10390;DHT22;5241;47.830;12.972;2023-03-31T00:41:00;7.90;99.90
10390;DHT22;5241;47.830;12.972;2023-03-31T00:43:31;7.90;99.90
10390;DHT22;5241;47.830;12.972;2023-03-31T00:46:06;7.90;99.90
10390;DHT22;5241;47.830;12.972;2023-03-31T00:48:44;7.90;99.90
10390;DHT22;5241;47.830;12.972;2023-03-31T00:51:11;7.90;99.90
10390;DHT22;5241;47.830;12.972;2023-03-31T00:53:36;7.90;99.90
10390;DHT22;5241;47.830;12.972;2023-03-31T00:56:07;7.90;99.90
10390;DHT22;5241;47.830;12.972;2023-03-31T00:58:33;7.90;99.90
10390;DHT22;5241;47.830;12.972;2023-03-31T01:01:00;7.90;99.90
10390;DHT22;5241;47.830;12.972;2023-03-31T01:03:29;7.90;99.90
10390;DHT22;5241;47.830;12.972;2023-03-31T01:06:00;7.80;99.90
10390;DHT22;5241;47.830;12.972;2023-03-31T01:08:28;7.80;99.90
10390;DHT22;5241;47.830;12.972;2023-03-31T01:10:56;7.80;99.90
10390;DHT22;5241;47.830;12.972;2023-03-31T01:13:23;7.80;99.90
10390;DHT22;5241;47.830;12.972;2023-03-31T01:15:50;7.70;99.90
10390;DHT22;5241;47.830;12.972;2023-03-31T01:18:16;7.70;99.90
10390;DHT22;5241;47.830;12.972;2023-03-31T01:27:05;7.60;99.90
10390;DHT22;5241;47.830;12.972;2023-03-31T01:33:22;7.50;99.90
10390;DHT22;5241;47.830;12.972;2023-03-31T01:41:22;7.40;99.90
10390;DHT22;5241;47.830;12.972;2023-03-31T01:44:08;7.40;99.90
10390;DHT22;5241;47.830;12.972;2023-03-31T01:46:57;7.50;99.90
10390;DHT22;5241;47.830;12.972;2023-03-31T01:49:50;7.50;99.90
10390;DHT22;5241;47.830;12.972;2023-03-31T01:52:34;7.50;99.90
10390;DHT22;5241;47.830;12.972;2023-03-31T01:55:12;7.50;99.90
10390;DHT22;5241;47.830;12.972;2023-03-31T02:00:35;7.60;99.90
10390;DHT22;5241;47.830;12.972;2023-03-31T02:06:01;7.50;99.90
10390;DHT22;5241;47.830;12.972;2023-03-31T02:08:31;7.50;99.90
10390;DHT22;5241;47.830;12.972;2023-03-31T02:11:01;7.60;99.90
10390;DHT22;5241;47.830;12.972;2023-03-31T02:13:28;7.60;99.90
10390;DHT22;5241;47.830;12.972;2023-03-31T02:15:57;7.60;99.90
10390;DHT22;5241;47.830;12.972;2023-03-31T02:18:27;7.70;99.90
10390;DHT22;5241;47.830;12.972;2023-03-31T02:20:58;7.70;99.90
10390;DHT22;5241;47.830;12.972;2023-03-31T02:23:27;7.60;99.90
10390;DHT22;5241;47.830;12.972;2023-03-31T02:26:01;7.70;99.90
10390;DHT22;5241;47.830;12.972;2023-03-31T02:28:28;7.70;99.90
10390;DHT22;5241;47.830;12.972;2023-03-31T02:33:38;7.70;99.90
10390;DHT22;5241;47.830;12.972;2023-03-31T02:36:04;7.70;99.90
10390;DHT22;5241;47.830;12.972;2023-03-31T02:38:37;7.70;99.90
10390;DHT22;5241;47.830;12.972;2023-03-31T02:41:04;7.80;99.90
10390;DHT22;5241;47.830;12.972;2023-03-31T02:43:30;7.80;99.90
10390;DHT22;5241;47.830;12.972;2023-03-31T02:45:55;7.80;99.90
10390;DHT22;5241;47.830;12.972;2023-03-31T02:48:27;7.80;99.90
10390;DHT22;5241;47.830;12.972;2023-03-31T02:51:29;7.90;99.90
10390;DHT22;5241;47.830;12.972;2023-03-31T02:54:19;7.80;99.90
10390;DHT22;5241;47.830;12.972;2023-03-31T03:13:56;7.90;99.90
10390;DHT22;5241;47.830;12.972;2023-03-31T03:16:28;7.80;99.90
10390;DHT22;5241;47.830;12.972;2023-03-31T03:19:03;7.80;99.90
10390;DHT22;5241;47.830;12.972;2023-03-31T03:21:30;7.80;99.90
10390;DHT22;5241;47.830;12.972;2023-03-31T03:23:56;7.80;99.90
10390;DHT22;5241;47.830;12.972;2023-03-31T03:26:22;7.80;99.90
10390;DHT22;5241;47.830;12.972;2023-03-31T03:28:49;7.80;99.90
10390;DHT22;5241;47.830;12.972;2023-03-31T03:31:15;7.80;99.90
10390;DHT22;5241;47.830;12.972;2023-03-31T03:33:41;7.70;99.90
10390;DHT22;5241;47.830;12.972;2023-03-31T03:36:07;7.70;99.90
10390;DHT22;5241;47.830;12.972;2023-03-31T03:38:33;7.70;99.90
10390;DHT22;5241;47.830;12.972;2023-03-31T03:40:58;7.60;99.90
10390;DHT22;5241;47.830;12.972;2023-03-31T03:43:24;7.60;99.90
10390;DHT22;5241;47.830;12.972;2023-03-31T03:45:50;7.60;99.90
10390;DHT22;5241;47.830;12.972;2023-03-31T03:48:17;7.60;99.90
10390;DHT22;5241;47.830;12.972;2023-03-31T03:50:44;7.60;99.90
10390;DHT22;5241;47.830;12.972;2023-03-31T03:53:11;7.70;99.90
10390;DHT22;5241;47.830;12.972;2023-03-31T03:55:36;7.70;99.90
10390;DHT22;5241;47.830;12.972;2023-03-31T03:58:02;7.70;99.90
10390;DHT22;5241;47.830;12.972;2023-03-31T04:00:28;7.70;99.90
10390;DHT22;5241;47.830;12.972;2023-03-31T04:02:53;7.70;99.90
10390;DHT22;5241;47.830;12.972;2023-03-31T04:05:19;7.70;99.90
10390;DHT22;5241;47.830;12.972;2023-03-31T04:07:44;7.80;99.90
10390;DHT22;5241;47.830;12.972;2023-03-31T04:10:10;7.80;99.90
10390;DHT22;5241;47.830;12.972;2023-03-31T04:12:36;7.80;99.90
10390;DHT22;5241;47.830;12.972;2023-03-31T04:15:01;7.80;99.90
10390;DHT22;5241;47.830;12.972;2023-03-31T04:17:27;7.80;99.90
10390;DHT22;5241;47.830;12.972;2023-03-31T04:20:17;7.70;99.90
10390;DHT22;5241;47.830;12.972;2023-03-31T04:22:42;7.60;99.90
10390;DHT22;5241;47.830;12.972;2023-03-31T04:25:12;7.50;99.90
10390;DHT22;5241;47.830;12.972;2023-03-31T04:27:46;7.50;99.90
10390;DHT22;5241;47.830;12.972;2023-03-31T04:30:16;7.50;99.90
10390;DHT22;5241;47.830;12.972;2023-03-31T04:32:51;7.60;99.90
10390;DHT22;5241;47.830;12.972;2023-03-31T04:35:20;7.60;99.90
10390;DHT22;5241;47.830;12.972;2023-03-31T04:37:50;7.60;99.90
10390;DHT22;5241;47.830;12.972;2023-03-31T04:40:17;7.60;99.90
10390;DHT22;5241;47.830;12.972;2023-03-31T04:42:43;7.60;99.90
10390;DHT22;5241;47.830;12.972;2023-03-31T04:45:10;7.60;99.90
10390;DHT22;5241;47.830;12.972;2023-03-31T04:47:36;7.70;99.90
10390;DHT22;5241;47.830;12.972;2023-03-31T04:50:02;7.70;99.90
10390;DHT22;5241;47.830;12.972;2023-03-31T04:52:27;7.60;99.90
10390;DHT22;5241;47.830;12.972;2023-03-31T04:54:53;7.70;99.90
10390;DHT22;5241;47.830;12.972;2023-03-31T04:57:19;7.70;99.90
10390;DHT22;5241;47.830;12.972;2023-03-31T04:59:44;7.70;99.90
10390;DHT22;5241;47.830;12.972;2023-03-31T05:02:10;7.70;99.90
10390;DHT22;5241;47.830;12.972;2023-03-31T05:04:35;7.70;99.90
10390;DHT22;5241;47.830;12.972;2023-03-31T05:07:02;7.70;99.90
10390;DHT22;5241;47.830;12.972;2023-03-31T05:09:27;7.70;99.90
10390;DHT22;5241;47.830;12.972;2023-03-31T05:11:53;7.70;99.90
10390;DHT22;5241;47.830;12.972;2023-03-31T05:14:19;7.70;99.90
10390;DHT22;5241;47.830;12.972;2023-03-31T05:16:45;7.70;99.90
10390;DHT22;5241;47.830;12.972;2023-03-31T05:19:11;7.70;99.90
10390;DHT22;5241;47.830;12.972;2023-03-31T05:21:36;7.80;99.90
10390;DHT22;5241;47.830;12.972;2023-03-31T05:24:02;7.80;99.90
10390;DHT22;5241;47.830;12.972;2023-03-31T05:26:29;7.80;99.90
10390;DHT22;5241;47.830;12.972;2023-03-31T05:28:55;7.90;99.90
10390;DHT22;5241;47.830;12.972;2023-03-31T05:31:21;7.90;99.90
10390;DHT22;5241;47.830;12.972;2023-03-31T05:33:47;7.90;99.90
10390;DHT22;5241;47.830;12.972;2023-03-31T05:36:15;8.00;99.90
10390;DHT22;5241;47.830;12.972;2023-03-31T05:38:41;8.00;99.90
10390;DHT22;5241;47.830;12.972;2023-03-31T05:41:08;8.00;99.90
10390;DHT22;5241;47.830;12.972;2023-03-31T05:43:35;7.90;99.90
10390;DHT22;5241;47.830;12.972;2023-03-31T05:46:01;7.90;99.90
10390;DHT22;5241;47.830;12.972;2023-03-31T05:48:27;7.80;99.90
10390;DHT22;5241;47.830;12.972;2023-03-31T05:50:56;7.80;99.90
10390;DHT22;5241;47.830;12.972;2023-03-31T05:53:23;7.80;99.90
10390;DHT22;5241;47.830;12.972;2023-03-31T05:55:49;7.90;99.90
10390;DHT22;5241;47.830;12.972;2023-03-31T05:58:14;8.10;99.90
10390;DHT22;5241;47.830;12.972;2023-03-31T06:00:40;8.20;99.90
10390;DHT22;5241;47.830;12.972;2023-03-31T06:03:05;8.20;99.90
10390;DHT22;5241;47.830;12.972;2023-03-31T06:05:32;8.20;99.90
10390;DHT22;5241;47.830;12.972;2023-03-31T06:07:59;8.20;99.90
10390;DHT22;5241;47.830;12.972;2023-03-31T06:10:24;8.10;99.90
10390;DHT22;5241;47.830;12.972;2023-03-31T06:12:50;8.10;99.90
10390;DHT22;5241;47.830;12.972;2023-03-31T06:15:16;8.20;99.90
10390;DHT22;5241;47.830;12.972;2023-03-31T06:17:41;8.30;99.90
10390;DHT22;5241;47.830;12.972;2023-03-31T06:20:07;8.50;99.90
10390;DHT22;5241;47.830;12.972;2023-03-31T06:22:33;8.70;99.90
10390;DHT22;5241;47.830;12.972;2023-03-31T06:24:58;8.80;99.90
10390;DHT22;5241;47.830;12.972;2023-03-31T06:27:24;8.90;99.90
10390;DHT22;5241;47.830;12.972;2023-03-31T06:29:49;9.00;99.90
10390;DHT22;5241;47.830;12.972;2023-03-31T06:32:15;9.00;99.90
10390;DHT22;5241;47.830;12.972;2023-03-31T06:34:41;9.00;99.90
10390;DHT22;5241;47.830;12.972;2023-03-31T06:37:09;9.20;99.90
10390;DHT22;5241;47.830;12.972;2023-03-31T06:39:34;9.20;99.90
10390;DHT22;5241;47.830;12.972;2023-03-31T06:42:00;9.30;99.90
10390;DHT22;5241;47.830;12.972;2023-03-31T06:44:25;9.40;99.90
10390;DHT22;5241;47.830;12.972;2023-03-31T06:46:51;9.60;99.90
10390;DHT22;5241;47.830;12.972;2023-03-31T06:49:16;9.70;99.90
10390;DHT22;5241;47.830;12.972;2023-03-31T06:51:42;9.70;99.90
10390;DHT22;5241;47.830;12.972;2023-03-31T06:54:07;9.60;99.90
10390;DHT22;5241;47.830;12.972;2023-03-31T06:56:33;9.50;99.90
10390;DHT22;5241;47.830;12.972;2023-03-31T06:58:58;9.50;99.90
10390;DHT22;5241;47.830;12.972;2023-03-31T07:01:24;9.50;99.90
10390;DHT22;5241;47.830;12.972;2023-03-31T07:03:50;9.50;99.90
10390;DHT22;5241;47.830;12.972;2023-03-31T07:06:15;9.60;99.90
10390;DHT22;5241;47.830;12.972;2023-03-31T07:08:41;9.80;99.90
10390;DHT22;5241;47.830;12.972;2023-03-31T07:11:06;10.00;99.90
10390;DHT22;5241;47.830;12.972;2023-03-31T07:13:32;10.20;99.90
10390;DHT22;5241;47.830;12.972;2023-03-31T07:15:57;10.20;99.90
10390;DHT22;5241;47.830;12.972;2023-03-31T07:18:23;10.30;99.90
10390;DHT22;5241;47.830;12.972;2023-03-31T07:20:57;10.60;99.90
10390;DHT22;5241;47.830;12.972;2023-03-31T07:23:22;10.80;99.90
10390;DHT22;5241;47.830;12.972;2023-03-31T07:25:48;11.20;99.90
10390;DHT22;5241;47.830;12.972;2023-03-31T07:28:13;11.60;99.90
10390;DHT22;5241;47.830;12.972;2023-03-31T07:30:39;12.20;99.90
10390;DHT22;5241;47.830;12.972;2023-03-31T07:33:05;12.60;99.90
10390;DHT22;5241;47.830;12.972;2023-03-31T07:35:31;12.70;99.90
10390;DHT22;5241;47.830;12.972;2023-03-31T07:37:57;13.10;99.90
10390;DHT22;5241;47.830;12.972;2023-03-31T07:40:25;12.80;99.90
10390;DHT22;5241;47.830;12.972;2023-03-31T07:42:51;12.20;99.90
10390;DHT22;5241;47.830;12.972;2023-03-31T07:45:19;12.30;99.90
10390;DHT22;5241;47.830;12.972;2023-03-31T07:47:46;12.70;99.90
10390;DHT22;5241;47.830;12.972;2023-03-31T07:50:13;13.20;99.90
10390;DHT22;5241;47.830;12.972;2023-03-31T07:52:40;14.00;99.90
10390;DHT22;5241;47.830;12.972;2023-03-31T07:55:06;14.00;99.90
10390;DHT22;5241;47.830;12.972;2023-03-31T07:57:32;13.60;99.90
10390;DHT22;5241;47.830;12.972;2023-03-31T07:59:58;13.00;99.90
10390;DHT22;5241;47.830;12.972;2023-03-31T08:02:24;12.50;99.90
10390;DHT22;5241;47.830;12.972;2023-03-31T08:04:49;12.10;99.90
10390;DHT22;5241;47.830;12.972;2023-03-31T08:07:15;12.20;99.90
10390;DHT22;5241;47.830;12.972;2023-03-31T08:09:44;12.10;99.90
10390;DHT22;5241;47.830;12.972;2023-03-31T08:12:10;11.90;99.90
10390;DHT22;5241;47.830;12.972;2023-03-31T08:14:35;11.70;99.90
10390;DHT22;5241;47.830;12.972;2023-03-31T08:17:01;11.50;99.90
10390;DHT22;5241;47.830;12.972;2023-03-31T08:19:27;11.40;99.90
10390;DHT22;5241;47.830;12.972;2023-03-31T08:21:53;11.30;99.90
10390;DHT22;5241;47.830;12.972;2023-03-31T08:24:19;11.10;99.90
10390;DHT22;5241;47.830;12.972;2023-03-31T08:26:44;10.80;99.90
10390;DHT22;5241;47.830;12.972;2023-03-31T08:29:10;10.80;99.90
10390;DHT22;5241;47.830;12.972;2023-03-31T08:31:36;10.80;99.90
10390;DHT22;5241;47.830;12.972;2023-03-31T08:34:02;10.80;99.90
10390;DHT22;5241;47.830;12.972;2023-03-31T08:36:27;10.90;99.90
10390;DHT22;5241;47.830;12.972;2023-03-31T08:38:53;11.00;99.90
10390;DHT22;5241;47.830;12.972;2023-03-31T08:43:58;11.30;99.90
10390;DHT22;5241;47.830;12.972;2023-03-31T08:46:27;11.20;99.90
10390;DHT22;5241;47.830;12.972;2023-03-31T08:48:54;11.20;99.90
10390;DHT22;5241;47.830;12.972;2023-03-31T08:51:28;11.20;99.90
10390;DHT22;5241;47.830;12.972;2023-03-31T08:53:59;11.10;99.90
10390;DHT22;5241;47.830;12.972;2023-03-31T08:56:28;10.90;99.90
10390;DHT22;5241;47.830;12.972;2023-03-31T08:58:54;11.00;99.90
10390;DHT22;5241;47.830;12.972;2023-03-31T09:01:39;10.90;99.90
10390;DHT22;5241;47.830;12.972;2023-03-31T09:07:29;10.70;99.90
10390;DHT22;5241;47.830;12.972;2023-03-31T09:12:54;11.00;99.90
10390;DHT22;5241;47.830;12.972;2023-03-31T09:15:31;11.20;99.90
10390;DHT22;5241;47.830;12.972;2023-03-31T09:18:06;11.20;99.90
10390;DHT22;5241;47.830;12.972;2023-03-31T09:20:35;11.50;99.90
10390;DHT22;5241;47.830;12.972;2023-03-31T09:23:26;11.90;99.90
10390;DHT22;5241;47.830;12.972;2023-03-31T09:25:54;12.40;99.90
10390;DHT22;5241;47.830;12.972;2023-03-31T09:28:25;12.50;99.90
10390;DHT22;5241;47.830;12.972;2023-03-31T09:30:53;12.30;99.90
10390;DHT22;5241;47.830;12.972;2023-03-31T09:33:29;12.10;99.90
10390;DHT22;5241;47.830;12.972;2023-03-31T09:36:01;12.00;99.90
10390;DHT22;5241;47.830;12.972;2023-03-31T09:38:27;11.80;99.90
10390;DHT22;5241;47.830;12.972;2023-03-31T09:40:58;11.60;99.90
10390;DHT22;5241;47.830;12.972;2023-03-31T09:43:27;11.50;99.90
10390;DHT22;5241;47.830;12.972;2023-03-31T09:45:55;11.60;99.90
10390;DHT22;5241;47.830;12.972;2023-03-31T09:48:24;11.80;99.90
10390;DHT22;5241;47.830;12.972;2023-03-31T09:53:47;12.20;99.90
10390;DHT22;5241;47.830;12.972;2023-03-31T09:56:43;12.00;99.90
10390;DHT22;5241;47.830;12.972;2023-03-31T09:59:18;11.70;99.90
10390;DHT22;5241;47.830;12.972;2023-03-31T10:01:46;11.50;99.90
10390;DHT22;5241;47.830;12.972;2023-03-31T10:04:43;11.50;99.90
10390;DHT22;5241;47.830;12.972;2023-03-31T10:07:04;11.50;99.90
10390;DHT22;5241;47.830;12.972;2023-03-31T10:09:31;11.40;99.90
10390;DHT22;5241;47.830;12.972;2023-03-31T10:12:07;11.20;99.90
10390;DHT22;5241;47.830;12.972;2023-03-31T10:14:40;11.20;99.90
10390;DHT22;5241;47.830;12.972;2023-03-31T10:17:06;11.40;99.90
10390;DHT22;5241;47.830;12.972;2023-03-31T10:19:35;11.60;99.90
10390;DHT22;5241;47.830;12.972;2023-03-31T10:22:11;11.80;99.90
10390;DHT22;5241;47.830;12.972;2023-03-31T10:24:43;12.00;99.90
10390;DHT22;5241;47.830;12.972;2023-03-31T10:27:20;12.00;99.90
10390;DHT22;5241;47.830;12.972;2023-03-31T10:29:46;11.80;99.90
10390;DHT22;5241;47.830;12.972;2023-03-31T10:32:24;12.00;99.90
10390;DHT22;5241;47.830;12.972;2023-03-31T10:34:53;12.00;99.90
10390;DHT22;5241;47.830;12.972;2023-03-31T10:37:22;12.00;99.90
10390;DHT22;5241;47.830;12.972;2023-03-31T10:40:12;12.00;99.90
10390;DHT22;5241;47.830;12.972;2023-03-31T10:42:39;12.00;99.90
10390;DHT22;5241;47.830;12.972;2023-03-31T10:45:23;12.00;99.90
10390;DHT22;5241;47.830;12.972;2023-03-31T10:47:53;12.00;99.90
10390;DHT22;5241;47.830;12.972;2023-03-31T10:50:19;12.00;99.90
10390;DHT22;5241;47.830;12.972;2023-03-31T10:52:50;12.00;99.90
10390;DHT22;5241;47.830;12.972;2023-03-31T10:55:24;11.80;99.90
10390;DHT22;5241;47.830;12.972;2023-03-31T10:57:55;11.50;99.90
10390;DHT22;5241;47.830;12.972;2023-03-31T11:00:55;11.60;99.90
10390;DHT22;5241;47.830;12.972;2023-03-31T11:03:38;11.70;99.90
10390;DHT22;5241;47.830;12.972;2023-03-31T11:06:16;11.70;99.90
10390;DHT22;5241;47.830;12.972;2023-03-31T11:08:55;11.80;99.90
10390;DHT22;5241;47.830;12.972;2023-03-31T11:14:17;11.70;99.90
10390;DHT22;5241;47.830;12.972;2023-03-31T11:22:00;11.50;99.90
10390;DHT22;5241;47.830;12.972;2023-03-31T11:35:59;11.40;99.90
10390;DHT22;5241;47.830;12.972;2023-03-31T11:38:43;11.40;99.90
10390;DHT22;5241;47.830;12.972;2023-03-31T11:44:04;11.70;99.90
10390;DHT22;5241;47.830;12.972;2023-03-31T11:46:45;11.70;99.90
10390;DHT22;5241;47.830;12.972;2023-03-31T11:54:48;11.50;99.90
10390;DHT22;5241;47.830;12.972;2023-03-31T11:57:26;11.30;99.90
10390;DHT22;5241;47.830;12.972;2023-03-31T12:00:15;11.10;99.90
10390;DHT22;5241;47.830;12.972;2023-03-31T12:05:25;10.80;99.90
10390;DHT22;5241;47.830;12.972;2023-03-31T12:10:31;10.80;99.90
10390;DHT22;5241;47.830;12.972;2023-03-31T12:13:19;10.80;99.90
10390;DHT22;5241;47.830;12.972;2023-03-31T12:16:11;10.80;99.90
10390;DHT22;5241;47.830;12.972;2023-03-31T12:21:29;10.60;99.90
10390;DHT22;5241;47.830;12.972;2023-03-31T12:23:55;10.40;99.90
10390;DHT22;5241;47.830;12.972;2023-03-31T12:31:57;10.10;99.90
10390;DHT22;5241;47.830;12.972;2023-03-31T12:34:25;10.10;99.90
10390;DHT22;5241;47.830;12.972;2023-03-31T12:37:59;10.10;99.90
10390;DHT22;5241;47.830;12.972;2023-03-31T12:45:30;10.20;99.90
10390;DHT22;5241;47.830;12.972;2023-03-31T12:54:07;9.90;99.90
10390;DHT22;5241;47.830;12.972;2023-03-31T12:59:33;9.70;99.90
10390;DHT22;5241;47.830;12.972;2023-03-31T13:02:19;9.80;99.90
10390;DHT22;5241;47.830;12.972;2023-03-31T13:04:45;9.60;99.90
10390;DHT22;5241;47.830;12.972;2023-03-31T13:12:39;9.50;99.90
10390;DHT22;5241;47.830;12.972;2023-03-31T13:15:12;9.50;99.90
10390;DHT22;5241;47.830;12.972;2023-03-31T13:17:38;9.60;99.90
10390;DHT22;5241;47.830;12.972;2023-03-31T13:22:45;9.70;99.90
10390;DHT22;5241;47.830;12.972;2023-03-31T13:27:55;9.80;99.90
10390;DHT22;5241;47.830;12.972;2023-03-31T13:35:37;9.70;99.90
10390;DHT22;5241;47.830;12.972;2023-03-31T13:38:48;9.70;99.90
10390;DHT22;5241;47.830;12.972;2023-03-31T13:41:23;9.70;99.90
10390;DHT22;5241;47.830;12.972;2023-03-31T14:06:54;9.70;99.90
10390;DHT22;5241;47.830;12.972;2023-03-31T14:11:58;9.70;99.90
10390;DHT22;5241;47.830;12.972;2023-03-31T14:14:24;9.60;99.90
10390;DHT22;5241;47.830;12.972;2023-03-31T14:16:59;9.60;99.90
10390;DHT22;5241;47.830;12.972;2023-03-31T14:19:57;9.40;99.90
10390;DHT22;5241;47.830;12.972;2023-03-31T14:22:33;9.20;99.90
10390;DHT22;5241;47.830;12.972;2023-03-31T14:25:52;9.00;99.90
10390;DHT22;5241;47.830;12.972;2023-03-31T14:31:29;8.80;99.90
10390;DHT22;5241;47.830;12.972;2023-03-31T14:36:39;8.90;99.90
10390;DHT22;5241;47.830;12.972;2023-03-31T14:39:15;8.80;99.90
10390;DHT22;5241;47.830;12.972;2023-03-31T14:41:44;8.80;99.90
10390;DHT22;5241;47.830;12.972;2023-03-31T14:44:13;8.70;99.90
10390;DHT22;5241;47.830;12.972;2023-03-31T14:46:40;8.70;99.90
10390;DHT22;5241;47.830;12.972;2023-03-31T14:49:18;8.60;99.90
10390;DHT22;5241;47.830;12.972;2023-03-31T14:51:44;8.60;99.90
10390;DHT22;5241;47.830;12.972;2023-03-31T14:54:16;8.70;99.90
10390;DHT22;5241;47.830;12.972;2023-03-31T14:56:45;8.60;99.90
10390;DHT22;5241;47.830;12.972;2023-03-31T14:59:19;8.70;99.90
10390;DHT22;5241;47.830;12.972;2023-03-31T15:01:46;8.60;99.90
10390;DHT22;5241;47.830;12.972;2023-03-31T15:04:14;8.50;99.90
10390;DHT22;5241;47.830;12.972;2023-03-31T15:06:44;8.50;99.90
10390;DHT22;5241;47.830;12.972;2023-03-31T15:09:20;8.50;99.90
10390;DHT22;5241;47.830;12.972;2023-03-31T15:11:53;8.50;99.90
10390;DHT22;5241;47.830;12.972;2023-03-31T15:14:21;8.40;99.90
10390;DHT22;5241;47.830;12.972;2023-03-31T15:16:48;8.40;99.90
10390;DHT22;5241;47.830;12.972;2023-03-31T15:19:20;8.30;99.90
10390;DHT22;5241;47.830;12.972;2023-03-31T15:22:26;8.30;99.90
10390;DHT22;5241;47.830;12.972;2023-03-31T15:24:45;8.30;99.90
10390;DHT22;5241;47.830;12.972;2023-03-31T15:27:34;8.30;99.90
10390;DHT22;5241;47.830;12.972;2023-03-31T15:30:03;8.30;99.90
10390;DHT22;5241;47.830;12.972;2023-03-31T15:32:34;8.40;99.90
10390;DHT22;5241;47.830;12.972;2023-03-31T15:35:00;8.40;99.90
10390;DHT22;5241;47.830;12.972;2023-03-31T15:37:55;8.40;99.90
10390;DHT22;5241;47.830;12.972;2023-03-31T15:40:25;8.40;99.90
10390;DHT22;5241;47.830;12.972;2023-03-31T15:42:57;8.30;99.90
10390;DHT22;5241;47.830;12.972;2023-03-31T15:47:50;8.50;99.90
10390;DHT22;5241;47.830;12.972;2023-03-31T15:50:17;8.50;99.90
10390;DHT22;5241;47.830;12.972;2023-03-31T15:52:48;8.50;99.90
10390;DHT22;5241;47.830;12.972;2023-03-31T15:55:37;8.60;99.90
10390;DHT22;5241;47.830;12.972;2023-03-31T15:58:03;8.60;99.90
10390;DHT22;5241;47.830;12.972;2023-03-31T16:00:45;8.50;99.90
10390;DHT22;5241;47.830;12.972;2023-03-31T16:03:23;8.50;99.90
10390;DHT22;5241;47.830;12.972;2023-03-31T16:05:54;8.50;99.90
10390;DHT22;5241;47.830;12.972;2023-03-31T16:08:25;8.50;99.90
10390;DHT22;5241;47.830;12.972;2023-03-31T16:10:59;8.50;99.90
10390;DHT22;5241;47.830;12.972;2023-03-31T16:13:26;8.50;99.90
10390;DHT22;5241;47.830;12.972;2023-03-31T16:15:54;8.40;99.90
10390;DHT22;5241;47.830;12.972;2023-03-31T16:18:31;8.50;99.90
10390;DHT22;5241;47.830;12.972;2023-03-31T16:21:01;8.60;99.90
10390;DHT22;5241;47.830;12.972;2023-03-31T16:23:30;8.60;99.90
10390;DHT22;5241;47.830;12.972;2023-03-31T16:25:57;8.50;99.90
10390;DHT22;5241;47.830;12.972;2023-03-31T16:28:29;8.50;99.90
10390;DHT22;5241;47.830;12.972;2023-03-31T16:30:56;8.50;99.90
10390;DHT22;5241;47.830;12.972;2023-03-31T16:33:26;8.50;99.90
10390;DHT22;5241;47.830;12.972;2023-03-31T16:35:53;8.60;99.90
10390;DHT22;5241;47.830;12.972;2023-03-31T16:38:27;8.50;99.90
10390;DHT22;5241;47.830;12.972;2023-03-31T16:40:55;8.60;99.90
10390;DHT22;5241;47.830;12.972;2023-03-31T16:43:26;8.50;99.90
10390;DHT22;5241;47.830;12.972;2023-03-31T16:45:57;8.50;99.90
10390;DHT22;5241;47.830;12.972;2023-03-31T16:48:25;8.40;99.90
10390;DHT22;5241;47.830;12.972;2023-03-31T16:50:53;8.50;99.90
10390;DHT22;5241;47.830;12.972;2023-03-31T16:53:22;8.50;99.90
10390;DHT22;5241;47.830;12.972;2023-03-31T16:55:48;8.50;99.90
10390;DHT22;5241;47.830;12.972;2023-03-31T16:58:14;8.70;99.90
10390;DHT22;5241;47.830;12.972;2023-03-31T17:00:41;8.70;99.90
10390;DHT22;5241;47.830;12.972;2023-03-31T17:03:07;8.70;99.90
10390;DHT22;5241;47.830;12.972;2023-03-31T17:05:44;8.70;99.90
10390;DHT22;5241;47.830;12.972;2023-03-31T17:08:11;8.80;99.90
10390;DHT22;5241;47.830;12.972;2023-03-31T17:10:38;8.80;99.90
10390;DHT22;5241;47.830;12.972;2023-03-31T17:13:04;8.80;99.90
10390;DHT22;5241;47.830;12.972;2023-03-31T17:15:30;8.80;99.90
10390;DHT22;5241;47.830;12.972;2023-03-31T17:17:57;8.80;99.90
10390;DHT22;5241;47.830;12.972;2023-03-31T17:20:26;8.80;99.90
10390;DHT22;5241;47.830;12.972;2023-03-31T17:22:52;8.80;99.90
10390;DHT22;5241;47.830;12.972;2023-03-31T17:25:18;8.80;99.90
10390;DHT22;5241;47.830;12.972;2023-03-31T17:27:44;8.80;99.90
10390;DHT22;5241;47.830;12.972;2023-03-31T17:30:10;8.80;99.90
10390;DHT22;5241;47.830;12.972;2023-03-31T17:32:37;8.80;99.90
10390;DHT22;5241;47.830;12.972;2023-03-31T17:35:02;8.70;99.90
10390;DHT22;5241;47.830;12.972;2023-03-31T17:37:28;8.60;99.90
10390;DHT22;5241;47.830;12.972;2023-03-31T17:39:54;8.50;99.90
10390;DHT22;5241;47.830;12.972;2023-03-31T17:42:20;8.50;99.90
10390;DHT22;5241;47.830;12.972;2023-03-31T17:44:45;8.50;99.90
10390;DHT22;5241;47.830;12.972;2023-03-31T17:47:14;8.40;99.90
10390;DHT22;5241;47.830;12.972;2023-03-31T17:49:40;8.40;99.90
10390;DHT22;5241;47.830;12.972;2023-03-31T17:52:06;8.30;99.90
10390;DHT22;5241;47.830;12.972;2023-03-31T17:54:31;8.30;99.90
10390;DHT22;5241;47.830;12.972;2023-03-31T17:56:57;8.30;99.90
10390;DHT22;5241;47.830;12.972;2023-03-31T17:59:23;8.40;99.90
10390;DHT22;5241;47.830;12.972;2023-03-31T18:01:49;8.40;99.90
10390;DHT22;5241;47.830;12.972;2023-03-31T18:04:14;8.40;99.90
10390;DHT22;5241;47.830;12.972;2023-03-31T18:06:40;8.50;99.90
10390;DHT22;5241;47.830;12.972;2023-03-31T18:09:06;8.50;99.90
10390;DHT22;5241;47.830;12.972;2023-03-31T18:11:33;8.50;99.90
10390;DHT22;5241;47.830;12.972;2023-03-31T18:13:59;8.50;99.90
10390;DHT22;5241;47.830;12.972;2023-03-31T18:16:27;8.40;99.90
10390;DHT22;5241;47.830;12.972;2023-03-31T18:18:53;8.40;99.90
10390;DHT22;5241;47.830;12.972;2023-03-31T18:21:19;8.50;99.90
10390;DHT22;5241;47.830;12.972;2023-03-31T18:23:44;8.60;99.90
10390;DHT22;5241;47.830;12.972;2023-03-31T18:26:12;8.60;99.90
10390;DHT22;5241;47.830;12.972;2023-03-31T18:28:38;8.60;99.90
10390;DHT22;5241;47.830;12.972;2023-03-31T18:31:09;8.60;99.90
10390;DHT22;5241;47.830;12.972;2023-03-31T18:33:35;8.60;99.90
10390;DHT22;5241;47.830;12.972;2023-03-31T18:36:01;8.60;99.90
10390;DHT22;5241;47.830;12.972;2023-03-31T18:38:27;8.50;99.90